Time;durP1;ratioP1;P1;durP2;ratioP2;P2;SDS_P1;SDS_P2;PMS_P1;PMS_P2;Temp;Humidity;BMP_temperature;BMP_pressure;BME280_temperature;BME280_humidity;BME280_pressure;Samples;Min_cycle;Max_cycle;Signal;HPM_P1;HPM_P2
2023/11/19 00:01:46;;;;;;;1.38;0.65;;;11.20;99.90;;;;;;5046136;28;20045;-79
2023/11/19 00:04:13;;;;;;;4.13;0.70;;;11.20;99.90;;;;;;5051041;28;20045;-77
2023/11/19 00:06:40;;;;;;;1.33;0.70;;;11.20;99.90;;;;;;5052632;28;20049;-78
2023/11/19 00:09:07;;;;;;;1.27;0.70;;;11.30;99.90;;;;;;5052752;28;20041;-77
2023/11/19 00:11:34;;;;;;;0.57;0.57;;;11.30;99.90;;;;;;5047276;28;20091;-78
2023/11/19 00:14:01;;;;;;;2.60;0.90;;;11.30;99.90;;;;;;5049933;28;20045;-80
2023/11/19 00:16:28;;;;;;;1.95;0.50;;;11.40;99.90;;;;;;5050601;28;20059;-78
2023/11/19 00:18:54;;;;;;;1.73;0.70;;;11.50;99.90;;;;;;5055333;28;20045;-77
2023/11/19 00:21:21;;;;;;;1.92;0.60;;;11.50;99.90;;;;;;5055038;28;20049;-80
2023/11/19 00:23:48;;;;;;;1.15;0.80;;;11.50;99.90;;;;;;5055687;28;20049;-81
2023/11/19 00:26:15;;;;;;;0.82;0.52;;;11.50;99.90;;;;;;5052842;28;20114;-79
2023/11/19 00:28:43;;;;;;;1.17;0.50;;;11.50;99.90;;;;;;5054478;28;20468;-78
2023/11/19 00:31:09;;;;;;;1.20;0.52;;;11.60;99.90;;;;;;5050850;28;20048;-80
2023/11/19 00:33:37;;;;;;;0.70;0.57;;;11.60;99.90;;;;;;5053960;28;20049;-79
2023/11/19 00:36:16;;;;;;;1.40;0.50;;;11.70;99.90;;;;;;5055162;28;20060;-78
2023/11/19 00:38:42;;;;;;;2.90;0.70;;;11.70;99.90;;;;;;5054903;28;20406;-80
2023/11/19 00:41:10;;;;;;;1.10;0.55;;;11.70;99.90;;;;;;5047230;28;20041;-75
2023/11/19 00:43:36;;;;;;;4.15;1.00;;;11.70;99.90;;;;;;5048649;28;20115;-77
2023/11/19 00:46:06;;;;;;;2.15;0.80;;;11.80;99.90;;;;;;5047940;28;20053;-77
2023/11/19 00:48:33;;;;;;;1.58;0.77;;;11.80;99.90;;;;;;5050426;28;20447;-77
2023/11/19 00:51:00;;;;;;;1.30;0.80;;;11.80;99.90;;;;;;5050420;28;20421;-78
2023/11/19 00:53:27;;;;;;;1.10;0.57;;;11.80;99.90;;;;;;5050175;28;20045;-76
2023/11/19 00:55:53;;;;;;;1.15;0.93;;;11.90;99.90;;;;;;5045711;28;20041;-78
2023/11/19 00:58:20;;;;;;;0.60;0.60;;;11.80;99.90;;;;;;5055057;28;20099;-77
2023/11/19 01:00:47;;;;;;;2.60;0.75;;;11.80;99.90;;;;;;5055092;28;20045;-80
2023/11/19 01:03:15;;;;;;;3.53;0.93;;;11.90;99.90;;;;;;5049968;28;20061;-80
2023/11/19 01:05:42;;;;;;;5.70;1.00;;;11.90;99.90;;;;;;5071297;28;20084;-80
2023/11/19 01:08:09;;;;;;;1.88;0.70;;;11.90;99.90;;;;;;5059223;28;20053;-79
2023/11/19 01:10:38;;;;;;;1.33;0.70;;;11.90;99.90;;;;;;5064139;28;20471;-77
2023/11/19 01:13:05;;;;;;;2.95;1.15;;;11.90;99.90;;;;;;5059081;28;20132;-80
2023/11/19 01:15:33;;;;;;;0.57;0.52;;;11.90;99.90;;;;;;5064848;28;20099;-78
2023/11/19 01:18:01;;;;;;;0.60;0.57;;;12.00;99.90;;;;;;5066990;28;20075;-79
2023/11/19 01:20:28;;;;;;;1.55;0.90;;;12.00;99.90;;;;;;5063182;28;20045;-79
2023/11/19 01:22:56;;;;;;;1.35;0.57;;;12.00;99.90;;;;;;5068800;28;20068;-78
2023/11/19 01:25:22;;;;;;;0.70;0.40;;;12.00;99.90;;;;;;5057096;28;20397;-79
2023/11/19 01:27:50;;;;;;;0.50;0.50;;;12.00;99.90;;;;;;5072197;28;20053;-79
2023/11/19 01:30:17;;;;;;;2.08;0.55;;;12.00;99.90;;;;;;5060373;28;20591;-77
2023/11/19 01:32:43;;;;;;;0.88;0.60;;;12.10;99.90;;;;;;5060114;28;20052;-79
2023/11/19 01:35:10;;;;;;;0.73;0.50;;;12.10;99.90;;;;;;5055691;28;20049;-79
2023/11/19 01:37:37;;;;;;;2.22;0.50;;;12.10;99.90;;;;;;5060572;28;20069;-79
2023/11/19 01:40:06;;;;;;;1.58;0.47;;;12.10;99.90;;;;;;5059177;28;20049;-79
2023/11/19 01:42:40;;;;;;;0.70;0.57;;;12.20;99.90;;;;;;5056474;28;20119;-78
2023/11/19 01:45:08;;;;;;;0.70;0.40;;;12.20;99.90;;;;;;5058095;28;20049;-79
2023/11/19 01:47:36;;;;;;;2.17;0.50;;;12.20;99.90;;;;;;5075225;28;20063;-78
2023/11/19 01:50:06;;;;;;;1.50;0.43;;;12.30;99.90;;;;;;5057765;28;20109;-80
2023/11/19 01:52:37;;;;;;;0.47;0.40;;;12.30;99.90;;;;;;5058270;28;20099;-78
2023/11/19 01:55:05;;;;;;;0.40;0.40;;;12.30;99.90;;;;;;5059397;28;20397;-78
2023/11/19 01:57:32;;;;;;;0.77;0.43;;;12.30;99.90;;;;;;5071950;28;20405;-79
2023/11/19 01:59:58;;;;;;;1.02;0.50;;;12.30;99.90;;;;;;5056946;28;20045;-80
2023/11/19 02:02:26;;;;;;;0.70;0.52;;;12.30;99.90;;;;;;5058512;28;20327;-77
2023/11/19 02:04:53;;;;;;;1.40;0.93;;;12.30;99.90;;;;;;5058846;28;20060;-79
2023/11/19 02:07:20;;;;;;;1.55;1.13;;;12.40;99.90;;;;;;5072074;28;20056;-79
2023/11/19 02:09:47;;;;;;;1.65;1.15;;;12.30;99.90;;;;;;5047739;28;20107;-79
2023/11/19 02:12:15;;;;;;;2.53;1.10;;;12.30;99.90;;;;;;5047153;28;20498;-81
2023/11/19 02:14:41;;;;;;;1.30;1.17;;;12.20;99.90;;;;;;5052121;28;20193;-79
2023/11/19 02:17:27;;;;;;;3.65;1.50;;;12.20;99.90;;;;;;5054058;28;20098;-80
2023/11/19 02:19:54;;;;;;;2.78;1.40;;;12.10;99.90;;;;;;5037462;28;20049;-80
2023/11/19 02:22:22;;;;;;;2.10;1.40;;;12.10;99.90;;;;;;5049965;28;20049;-80
2023/11/19 02:24:58;;;;;;;3.63;1.77;;;12.00;99.90;;;;;;5047262;28;20050;-79
2023/11/19 02:27:39;;;;;;;1.98;1.33;;;12.00;99.90;;;;;;5055920;28;20104;-77
2023/11/19 02:30:08;;;;;;;5.22;1.30;;;12.00;99.90;;;;;;5058289;28;20052;-78
2023/11/19 02:32:35;;;;;;;2.30;1.30;;;11.90;99.90;;;;;;5052954;28;20053;-77
2023/11/19 02:35:02;;;;;;;2.55;1.10;;;11.90;99.90;;;;;;5051216;28;20044;-76
2023/11/19 02:37:32;;;;;;;3.33;1.10;;;11.90;99.90;;;;;;5049194;28;20044;-76
2023/11/19 02:40:09;;;;;;;4.50;1.42;;;11.90;99.90;;;;;;5048982;28;20099;-80
2023/11/19 02:42:36;;;;;;;0.82;0.70;;;11.80;99.90;;;;;;5044663;28;20049;-77
2023/11/19 02:45:06;;;;;;;6.32;0.90;;;11.80;99.90;;;;;;5051996;28;20053;-78
2023/11/19 02:47:33;;;;;;;1.55;1.08;;;11.80;99.90;;;;;;5051584;28;20048;-79
2023/11/19 02:50:00;;;;;;;5.53;1.10;;;11.80;99.90;;;;;;5051743;28;20504;-77
2023/11/19 02:52:28;;;;;;;1.98;0.90;;;11.70;99.90;;;;;;5048680;28;20053;-78
2023/11/19 02:54:55;;;;;;;2.10;1.15;;;11.70;99.90;;;;;;5051988;28;20072;-78
2023/11/19 02:57:22;;;;;;;1.90;1.17;;;11.70;99.90;;;;;;5047161;28;20056;-78
2023/11/19 02:59:49;;;;;;;2.28;1.10;;;11.70;99.90;;;;;;5052130;28;20057;-77
2023/11/19 03:02:17;;;;;;;4.13;1.15;;;11.60;99.90;;;;;;5052260;28;20072;-79
2023/11/19 03:04:45;;;;;;;1.38;1.08;;;11.70;99.90;;;;;;5048379;28;20144;-76
2023/11/19 03:07:13;;;;;;;1.40;1.10;;;11.70;99.90;;;;;;5048849;28;20041;-79
2023/11/19 03:09:40;;;;;;;1.77;1.27;;;11.70;99.90;;;;;;5037685;28;20129;-79
2023/11/19 03:12:07;;;;;;;2.88;1.30;;;11.70;99.90;;;;;;5050352;28;20049;-79
2023/11/19 03:14:35;;;;;;;2.80;1.08;;;11.60;99.90;;;;;;5051511;28;20049;-77
2023/11/19 03:17:01;;;;;;;2.95;1.33;;;11.60;99.90;;;;;;5049751;28;20077;-77
2023/11/19 03:19:28;;;;;;;3.50;1.20;;;11.60;99.90;;;;;;5047684;28;20419;-79
2023/11/19 03:21:55;;;;;;;2.38;1.60;;;11.60;99.90;;;;;;5047173;28;20049;-76
2023/11/19 03:24:22;;;;;;;1.92;1.08;;;11.60;99.90;;;;;;5043947;28;20062;-79
2023/11/19 03:26:52;;;;;;;1.50;1.10;;;11.60;99.90;;;;;;5049700;28;20059;-77
2023/11/19 03:29:19;;;;;;;3.42;1.40;;;11.60;99.90;;;;;;5053244;28;20056;-79
2023/11/19 03:31:46;;;;;;;2.70;1.40;;;11.60;99.90;;;;;;5048754;28;20518;-77
2023/11/19 03:34:12;;;;;;;1.67;1.27;;;11.60;99.90;;;;;;5049223;28;20152;-77
2023/11/19 03:36:39;;;;;;;4.13;1.40;;;11.60;99.90;;;;;;5048675;28;20104;-77
2023/11/19 03:39:06;;;;;;;6.03;1.17;;;11.60;99.90;;;;;;5049983;28;20098;-78
2023/11/19 03:41:33;;;;;;;1.30;1.00;;;11.50;99.90;;;;;;5050636;28;20041;-80
2023/11/19 03:44:03;;;;;;;4.68;1.02;;;11.50;99.90;;;;;;5046822;28;20361;-78
2023/11/19 03:46:30;;;;;;;3.67;1.02;;;11.50;99.90;;;;;;5052794;28;20550;-79
2023/11/19 03:48:57;;;;;;;3.83;1.38;;;11.50;99.90;;;;;;5052029;28;20054;-78
2023/11/19 03:51:24;;;;;;;2.58;1.13;;;11.50;99.90;;;;;;5052790;28;20069;-79
2023/11/19 03:53:50;;;;;;;1.75;1.00;;;11.50;99.90;;;;;;5048796;28;20420;-78
2023/11/19 03:56:17;;;;;;;1.52;1.00;;;11.50;99.90;;;;;;5053420;28;20045;-77
2023/11/19 03:58:44;;;;;;;4.07;0.85;;;11.50;99.90;;;;;;5054556;28;20044;-77
2023/11/19 04:01:15;;;;;;;1.13;1.02;;;11.50;99.90;;;;;;5053049;28;20053;-79
2023/11/19 04:03:41;;;;;;;3.45;1.42;;;11.50;99.90;;;;;;5051683;28;20050;-78
2023/11/19 04:06:11;;;;;;;2.50;1.02;;;11.50;99.90;;;;;;5053380;28;20055;-78
2023/11/19 04:08:38;;;;;;;1.65;1.20;;;11.50;99.90;;;;;;5047187;28;20049;-78
2023/11/19 04:11:05;;;;;;;1.35;0.82;;;11.50;99.90;;;;;;5049840;28;20052;-78
2023/11/19 04:13:32;;;;;;;1.60;1.10;;;11.50;99.90;;;;;;5056963;28;20178;-77
2023/11/19 04:15:59;;;;;;;0.93;0.70;;;11.50;99.90;;;;;;5053302;28;20045;-78
2023/11/19 04:18:26;;;;;;;0.98;0.90;;;11.50;99.90;;;;;;5055741;28;20063;-80
2023/11/19 04:20:52;;;;;;;1.25;0.63;;;11.50;99.90;;;;;;5050658;28;20456;-77
2023/11/19 04:23:19;;;;;;;0.88;0.75;;;11.60;99.90;;;;;;5062634;28;20500;-77
2023/11/19 04:25:46;;;;;;;1.30;0.60;;;11.50;99.90;;;;;;5068425;28;20044;-77
2023/11/19 04:28:13;;;;;;;1.85;0.60;;;11.50;99.90;;;;;;5067268;28;20049;-77
2023/11/19 04:30:39;;;;;;;0.55;0.55;;;11.60;99.90;;;;;;5062621;28;20075;-77
2023/11/19 04:33:06;;;;;;;3.03;0.70;;;11.60;99.90;;;;;;5066719;28;20068;-77
2023/11/19 04:35:33;;;;;;;0.95;0.60;;;11.60;99.90;;;;;;5060800;28;20333;-77
2023/11/19 04:38:00;;;;;;;1.38;0.63;;;11.60;99.90;;;;;;5060860;28;20572;-77
2023/11/19 04:40:26;;;;;;;1.98;0.82;;;11.60;99.90;;;;;;5061889;28;20099;-79
2023/11/19 04:42:53;;;;;;;1.00;0.70;;;11.70;99.90;;;;;;5057342;28;20045;-76
2023/11/19 04:45:20;;;;;;;1.00;0.40;;;11.70;99.90;;;;;;5056532;28;20493;-76
2023/11/19 04:47:46;;;;;;;0.50;0.50;;;11.70;99.90;;;;;;5053062;28;20065;-76
2023/11/19 04:50:13;;;;;;;0.73;0.50;;;11.60;99.90;;;;;;5053455;28;20049;-80
2023/11/19 04:52:40;;;;;;;1.00;0.70;;;11.70;99.90;;;;;;5036340;28;20498;-77
2023/11/19 04:55:07;;;;;;;2.50;0.60;;;11.70;99.90;;;;;;5046428;28;20041;-80
2023/11/19 04:57:34;;;;;;;1.20;0.80;;;11.70;99.90;;;;;;5054141;28;20131;-80
2023/11/19 05:00:01;;;;;;;0.70;0.65;;;11.70;99.90;;;;;;5049951;28;20049;-78
2023/11/19 05:02:28;;;;;;;0.77;0.77;;;11.70;99.90;;;;;;5048984;28;20511;-76
2023/11/19 05:04:54;;;;;;;2.17;0.70;;;11.70;99.90;;;;;;5050262;28;20037;-78
2023/11/19 05:07:21;;;;;;;3.10;0.68;;;11.70;99.90;;;;;;5053427;28;20045;-77
2023/11/19 05:09:48;;;;;;;0.77;0.50;;;11.70;99.90;;;;;;5056856;28;20045;-76
2023/11/19 05:12:15;;;;;;;1.38;0.88;;;11.70;99.90;;;;;;5057789;28;20045;-77
2023/11/19 05:14:49;;;;;;;0.80;0.70;;;11.80;99.90;;;;;;5055204;28;20041;-80
2023/11/19 05:17:17;;;;;;;1.20;0.70;;;11.70;99.90;;;;;;5061188;28;20135;-79
2023/11/19 05:19:45;;;;;;;0.93;0.40;;;11.80;99.90;;;;;;5049178;28;20045;-78
2023/11/19 05:22:12;;;;;;;1.38;0.50;;;11.80;99.90;;;;;;5073124;28;20041;-77
2023/11/19 05:24:40;;;;;;;0.98;0.47;;;11.80;99.90;;;;;;5060989;28;20507;-78
2023/11/19 05:27:07;;;;;;;0.57;0.52;;;11.80;99.90;;;;;;5049450;28;20055;-80
2023/11/19 05:29:34;;;;;;;0.63;0.63;;;11.80;99.90;;;;;;5050012;28;20079;-81
2023/11/19 05:32:01;;;;;;;1.33;0.70;;;11.90;99.90;;;;;;5053096;28;20055;-77
2023/11/19 05:34:28;;;;;;;1.15;0.80;;;11.90;99.90;;;;;;5046980;28;20052;-80
2023/11/19 05:36:55;;;;;;;1.85;0.70;;;11.90;99.90;;;;;;5060721;28;20045;-80
2023/11/19 05:39:22;;;;;;;0.50;0.50;;;11.90;99.90;;;;;;5063640;28;20060;-80
2023/11/19 05:41:49;;;;;;;0.52;0.52;;;11.90;99.90;;;;;;5051123;28;20045;-78
2023/11/19 05:44:17;;;;;;;1.48;0.60;;;11.90;99.90;;;;;;5052678;28;20103;-77
2023/11/19 05:46:43;;;;;;;0.68;0.68;;;12.00;99.90;;;;;;5047752;28;20279;-80
2023/11/19 05:49:11;;;;;;;1.30;0.60;;;12.00;99.90;;;;;;5047988;28;20056;-80
2023/11/19 05:51:39;;;;;;;0.93;0.60;;;12.00;99.90;;;;;;5047901;28;20049;-78
2023/11/19 05:54:10;;;;;;;1.60;0.45;;;12.00;99.90;;;;;;5051758;28;20045;-81
2023/11/19 05:56:37;;;;;;;0.60;0.50;;;12.00;99.90;;;;;;5045374;28;20051;-80
2023/11/19 05:59:07;;;;;;;0.95;0.40;;;12.00;99.90;;;;;;5050726;28;20055;-80
2023/11/19 06:01:34;;;;;;;0.82;0.60;;;12.10;99.90;;;;;;5063296;28;20045;-78
2023/11/19 06:04:02;;;;;;;2.92;0.63;;;12.10;99.90;;;;;;5046649;28;20575;-79
2023/11/19 06:06:29;;;;;;;0.63;0.52;;;12.10;99.90;;;;;;5049945;28;20045;-80
2023/11/19 06:08:56;;;;;;;0.40;0.30;;;12.10;99.90;;;;;;5053403;28;20609;-80
2023/11/19 06:11:22;;;;;;;1.25;0.50;;;12.10;99.90;;;;;;5049945;28;20090;-81
2023/11/19 06:13:50;;;;;;;1.75;0.40;;;12.10;99.90;;;;;;5047799;28;20497;-79
2023/11/19 06:16:18;;;;;;;0.70;0.50;;;12.10;99.90;;;;;;5050508;28;20485;-79
2023/11/19 06:18:45;;;;;;;1.15;0.52;;;12.20;99.90;;;;;;5041450;28;20037;-78
2023/11/19 06:21:12;;;;;;;0.60;0.50;;;12.20;99.90;;;;;;5051338;28;20123;-80
2023/11/19 06:23:39;;;;;;;2.25;0.50;;;12.20;99.90;;;;;;5053845;28;20420;-80
2023/11/19 06:26:06;;;;;;;3.97;0.80;;;12.20;99.90;;;;;;5053727;28;20044;-80
2023/11/19 06:28:32;;;;;;;0.70;0.70;;;12.20;99.90;;;;;;5049556;28;20045;-81
2023/11/19 06:30:59;;;;;;;0.50;0.50;;;12.20;99.90;;;;;;5047286;28;20080;-80
2023/11/19 06:33:27;;;;;;;1.60;0.50;;;12.20;99.90;;;;;;5045986;28;20115;-78
2023/11/19 06:35:54;;;;;;;0.40;0.40;;;12.20;99.90;;;;;;5050780;28;20044;-77
2023/11/19 06:38:21;;;;;;;0.55;0.45;;;12.20;99.90;;;;;;5053825;28;20095;-78
2023/11/19 06:40:48;;;;;;;0.50;0.50;;;12.20;99.90;;;;;;5048736;28;20045;-79
2023/11/19 06:43:19;;;;;;;0.77;0.50;;;12.30;99.90;;;;;;5050824;28;20056;-78
2023/11/19 06:45:46;;;;;;;0.40;0.40;;;12.20;99.90;;;;;;5045103;28;20049;-79
2023/11/19 06:48:12;;;;;;;0.32;0.32;;;12.30;99.90;;;;;;5047081;28;20041;-79
2023/11/19 06:50:39;;;;;;;1.52;0.70;;;12.30;99.90;;;;;;5049437;28;20052;-78
2023/11/19 06:53:10;;;;;;;2.65;0.50;;;12.30;99.90;;;;;;5049948;28;20134;-79
2023/11/19 06:55:37;;;;;;;1.13;0.50;;;12.20;99.90;;;;;;5050000;28;20618;-78
2023/11/19 06:58:03;;;;;;;0.77;0.47;;;12.30;99.90;;;;;;5051570;28;20095;-80
2023/11/19 07:00:32;;;;;;;2.35;0.60;;;12.30;99.90;;;;;;5047841;28;20524;-80
2023/11/19 07:02:59;;;;;;;1.45;0.45;;;12.30;99.90;;;;;;5050635;28;20041;-80
2023/11/19 07:05:27;;;;;;;0.95;0.40;;;12.30;99.90;;;;;;5053209;28;20390;-81
2023/11/19 07:07:54;;;;;;;3.75;0.50;;;12.30;99.90;;;;;;5052938;28;20063;-79
2023/11/19 07:10:21;;;;;;;0.73;0.65;;;12.30;99.90;;;;;;5048112;28;20045;-78
2023/11/19 07:12:50;;;;;;;1.20;0.80;;;12.40;99.90;;;;;;5057882;28;20052;-78
2023/11/19 07:15:17;;;;;;;1.58;0.80;;;12.40;99.90;;;;;;5040178;28;20042;-79
2023/11/19 07:17:45;;;;;;;0.95;0.50;;;12.40;99.90;;;;;;5047319;28;20051;-81
2023/11/19 07:20:15;;;;;;;3.00;0.65;;;12.40;99.90;;;;;;5043363;28;20049;-79
2023/11/19 07:22:45;;;;;;;6.03;2.35;;;12.40;99.90;;;;;;5068027;28;20110;-80
2023/11/19 07:25:15;;;;;;;0.73;0.60;;;12.40;99.90;;;;;;5049813;28;20051;-79
2023/11/19 07:27:42;;;;;;;1.65;0.63;;;12.40;99.90;;;;;;5046876;28;20045;-80
2023/11/19 07:30:09;;;;;;;1.60;0.50;;;12.50;99.90;;;;;;5047079;28;20040;-79
2023/11/19 07:32:38;;;;;;;2.40;0.50;;;12.50;99.90;;;;;;5048799;28;20052;-80
2023/11/19 07:35:06;;;;;;;1.23;0.80;;;12.50;99.90;;;;;;5049507;28;20045;-79
2023/11/19 07:37:33;;;;;;;2.63;0.50;;;12.50;99.90;;;;;;5051080;28;20037;-79
2023/11/19 07:39:59;;;;;;;2.60;0.82;;;12.50;99.90;;;;;;5050643;28;20044;-80
2023/11/19 07:42:26;;;;;;;3.47;0.70;;;12.60;99.90;;;;;;5068435;28;20128;-80
2023/11/19 07:44:55;;;;;;;3.72;0.80;;;12.60;99.90;;;;;;5056810;28;20086;-79
2023/11/19 07:47:23;;;;;;;0.85;0.65;;;12.60;99.90;;;;;;5056089;28;20110;-79
2023/11/19 07:49:51;;;;;;;4.03;0.90;;;12.60;99.90;;;;;;5063837;28;20113;-78
2023/11/19 07:52:17;;;;;;;1.70;0.80;;;12.60;99.90;;;;;;5062373;28;20613;-79
2023/11/19 07:54:47;;;;;;;2.33;0.70;;;12.70;99.90;;;;;;5054451;28;20045;-80
2023/11/19 07:57:14;;;;;;;0.98;0.88;;;12.70;99.90;;;;;;5049889;28;20079;-77
2023/11/19 07:59:40;;;;;;;2.42;0.80;;;12.70;99.90;;;;;;5069018;28;20069;-79
2023/11/19 08:02:07;;;;;;;0.77;0.75;;;12.70;99.90;;;;;;5053037;28;20049;-81
2023/11/19 08:04:34;;;;;;;1.10;0.60;;;12.70;99.90;;;;;;5064940;28;20083;-78
2023/11/19 08:07:01;;;;;;;0.95;0.73;;;12.70;99.90;;;;;;5056536;28;20045;-77
2023/11/19 08:09:28;;;;;;;1.23;0.65;;;12.80;99.90;;;;;;5053574;28;20531;-81
2023/11/19 08:11:56;;;;;;;3.85;0.70;;;12.80;99.90;;;;;;5053590;28;20100;-80
2023/11/19 08:14:23;;;;;;;1.63;0.93;;;12.80;99.90;;;;;;5066555;28;20394;-79
2023/11/19 08:16:51;;;;;;;3.97;1.02;;;12.80;99.90;;;;;;5048103;28;20083;-79
2023/11/19 08:19:17;;;;;;;1.25;0.90;;;12.80;99.90;;;;;;5055365;28;20053;-80
2023/11/19 08:21:44;;;;;;;1.30;0.75;;;12.80;99.90;;;;;;5057496;28;20429;-77
2023/11/19 08:24:11;;;;;;;1.65;0.70;;;12.80;99.90;;;;;;5060054;28;20048;-78
2023/11/19 08:26:38;;;;;;;2.13;0.60;;;12.80;99.90;;;;;;5060424;28;20049;-78
2023/11/19 08:29:05;;;;;;;2.22;0.90;;;12.90;99.90;;;;;;5061870;28;20075;-79
2023/11/19 08:31:32;;;;;;;2.22;1.02;;;12.80;99.90;;;;;;5060687;28;20047;-78
2023/11/19 08:33:59;;;;;;;1.58;0.90;;;12.80;99.90;;;;;;5060597;28;20040;-79
2023/11/19 08:36:25;;;;;;;1.08;0.82;;;12.90;99.90;;;;;;5061551;28;20331;-79
2023/11/19 08:38:52;;;;;;;3.60;0.93;;;12.90;99.90;;;;;;5060956;28;20045;-79
2023/11/19 08:41:19;;;;;;;2.78;0.70;;;12.90;99.90;;;;;;5061341;28;20105;-79
2023/11/19 08:43:46;;;;;;;3.60;0.75;;;13.00;99.90;;;;;;5059401;28;20101;-79
2023/11/19 08:46:13;;;;;;;1.08;0.60;;;13.00;99.90;;;;;;5065863;28;20082;-78
2023/11/19 08:48:40;;;;;;;3.22;0.98;;;13.00;99.90;;;;;;5070692;28;20508;-77
2023/11/19 08:51:07;;;;;;;2.25;0.60;;;13.10;99.90;;;;;;5063669;28;20054;-79
2023/11/19 08:53:34;;;;;;;2.08;0.70;;;13.10;99.90;;;;;;5055785;28;20045;-78
2023/11/19 08:56:02;;;;;;;1.23;0.80;;;13.10;99.90;;;;;;5057376;28;20091;-79
2023/11/19 08:58:30;;;;;;;3.60;0.70;;;13.10;99.90;;;;;;5057699;28;20045;-80
2023/11/19 09:00:57;;;;;;;3.95;1.10;;;13.10;99.90;;;;;;5059131;28;20465;-79
2023/11/19 09:03:29;;;;;;;2.47;0.90;;;13.10;99.90;;;;;;5059270;28;20052;-77
2023/11/19 09:05:57;;;;;;;1.00;0.60;;;13.20;99.90;;;;;;5057443;28;20049;-78
2023/11/19 09:08:23;;;;;;;2.42;0.50;;;13.20;99.90;;;;;;5058616;28;20053;-77
2023/11/19 09:10:51;;;;;;;1.30;0.50;;;13.30;99.90;;;;;;5056382;28;20053;-79
2023/11/19 09:13:17;;;;;;;3.65;0.90;;;13.30;99.90;;;;;;5058805;28;20393;-77
2023/11/19 09:15:44;;;;;;;3.45;1.02;;;13.30;99.90;;;;;;5056054;28;20055;-77
2023/11/19 09:18:11;;;;;;;1.45;1.08;;;13.30;99.90;;;;;;5057848;28;20479;-77
2023/11/19 09:20:38;;;;;;;3.13;0.80;;;13.40;99.90;;;;;;5058159;28;20041;-78
2023/11/19 09:23:06;;;;;;;3.38;0.70;;;13.40;99.90;;;;;;5058019;28;20426;-79
2023/11/19 09:25:33;;;;;;;1.20;0.80;;;13.40;99.90;;;;;;5057821;28;20417;-78
2023/11/19 09:28:03;;;;;;;1.30;0.70;;;13.40;99.90;;;;;;5057226;28;20512;-78
2023/11/19 09:30:33;;;;;;;1.27;0.90;;;13.40;99.90;;;;;;5059087;28;20063;-78
2023/11/19 09:33:00;;;;;;;2.22;0.93;;;13.40;99.90;;;;;;5058534;28;20052;-79
2023/11/19 09:35:27;;;;;;;2.42;0.68;;;13.40;99.90;;;;;;5055143;28;20044;-79
2023/11/19 09:37:54;;;;;;;2.50;0.65;;;13.40;99.90;;;;;;5057047;28;20128;-81
2023/11/19 09:40:21;;;;;;;3.47;0.88;;;13.40;99.90;;;;;;5059353;28;20048;-79
2023/11/19 09:42:48;;;;;;;1.23;0.73;;;13.40;99.90;;;;;;5057204;28;20049;-79
2023/11/19 09:45:16;;;;;;;1.25;0.80;;;13.30;99.90;;;;;;5058635;28;20132;-78
2023/11/19 09:47:47;;;;;;;1.10;0.80;;;13.30;99.90;;;;;;5058976;28;20048;-78
2023/11/19 09:50:18;;;;;;;2.20;0.80;;;13.30;99.90;;;;;;5059270;28;20049;-79
2023/11/19 09:52:47;;;;;;;2.47;1.00;;;13.40;99.90;;;;;;5058842;28;20049;-77
2023/11/19 09:55:14;;;;;;;1.45;0.60;;;13.30;99.90;;;;;;5055103;28;20067;-77
2023/11/19 09:57:41;;;;;;;0.68;0.60;;;13.30;99.90;;;;;;5057870;28;20095;-78
2023/11/19 10:00:10;;;;;;;4.30;0.70;;;13.40;99.90;;;;;;5055680;28;20051;-78
2023/11/19 10:02:38;;;;;;;1.30;0.70;;;13.40;99.90;;;;;;5058226;28;20124;-78
2023/11/19 10:05:10;;;;;;;1.77;0.80;;;13.40;99.90;;;;;;5058955;28;20041;-78
2023/11/19 10:07:37;;;;;;;0.50;0.50;;;13.40;99.90;;;;;;5053549;28;20044;-78
2023/11/19 10:10:04;;;;;;;1.92;0.70;;;13.40;99.90;;;;;;5058619;28;20076;-77
2023/11/19 10:12:31;;;;;;;1.23;0.60;;;13.40;99.90;;;;;;5057958;28;20052;-78
2023/11/19 10:14:59;;;;;;;1.65;0.60;;;13.40;99.90;;;;;;5058019;28;20064;-77
2023/11/19 10:17:32;;;;;;;0.40;0.40;;;13.40;99.90;;;;;;5058702;28;20052;-78
2023/11/19 10:19:59;;;;;;;1.00;0.50;;;13.40;99.90;;;;;;5059177;28;20055;-77
2023/11/19 10:22:27;;;;;;;7.53;0.55;;;13.40;99.90;;;;;;5058825;28;20155;-76
2023/11/19 10:24:54;;;;;;;0.47;0.47;;;13.50;99.90;;;;;;5052311;28;20049;-76
2023/11/19 10:27:25;;;;;;;1.00;0.60;;;13.50;99.90;;;;;;5054318;28;20049;-77
2023/11/19 10:29:52;;;;;;;1.30;0.85;;;13.50;99.90;;;;;;5053935;28;20052;-77
2023/11/19 10:32:19;;;;;;;2.15;0.93;;;13.50;99.90;;;;;;5052896;28;20052;-76
2023/11/19 10:35:04;;;;;;;1.05;0.70;;;13.60;99.90;;;;;;5052450;28;20049;-76
2023/11/19 10:37:32;;;;;;;0.65;0.57;;;13.60;99.90;;;;;;5053861;28;20075;-77
2023/11/19 10:39:59;;;;;;;2.53;0.68;;;13.60;99.90;;;;;;5053310;28;20045;-77
2023/11/19 10:42:26;;;;;;;0.95;0.50;;;13.60;99.90;;;;;;5053538;28;20219;-78
2023/11/19 10:44:53;;;;;;;1.40;0.63;;;13.60;99.90;;;;;;5053361;28;20053;-78
2023/11/19 10:47:20;;;;;;;1.25;0.80;;;13.70;99.90;;;;;;5052744;28;20053;-77
2023/11/19 10:50:06;;;;;;;0.68;0.50;;;13.70;99.90;;;;;;5053820;28;20580;-79
2023/11/19 10:52:33;;;;;;;1.38;0.60;;;13.70;99.90;;;;;;5053612;28;20068;-76
2023/11/19 10:55:01;;;;;;;0.65;0.60;;;13.70;99.90;;;;;;5053279;28;20428;-78
2023/11/19 10:57:32;;;;;;;2.33;0.65;;;13.70;99.90;;;;;;5068239;28;20079;-78
2023/11/19 11:00:03;;;;;;;0.85;0.57;;;13.70;99.90;;;;;;5053455;28;20053;-78
2023/11/19 11:02:35;;;;;;;1.00;0.60;;;13.70;99.90;;;;;;5054480;28;20504;-78
2023/11/19 11:05:03;;;;;;;2.13;0.75;;;13.70;99.90;;;;;;5069055;28;20140;-78
2023/11/19 11:07:31;;;;;;;0.95;0.60;;;13.70;99.90;;;;;;5056275;28;20104;-80
2023/11/19 11:10:09;;;;;;;1.75;0.60;;;13.70;99.90;;;;;;5062688;28;20055;-77
2023/11/19 11:12:37;;;;;;;2.90;0.70;;;13.80;99.90;;;;;;5056317;28;20136;-77
2023/11/19 11:15:07;;;;;;;1.17;0.82;;;13.80;99.90;;;;;;5057564;28;20067;-78
2023/11/19 11:17:34;;;;;;;1.67;0.88;;;13.80;99.90;;;;;;5062737;28;20048;-77
2023/11/19 11:20:02;;;;;;;2.45;1.08;;;13.80;99.90;;;;;;5058094;28;20081;-76
2023/11/19 11:22:41;;;;;;;1.15;0.90;;;13.80;99.90;;;;;;5053609;28;20563;-76
2023/11/19 11:25:47;;;;;;;0.90;0.80;;;13.80;99.90;;;;;;5069325;28;20099;-77
2023/11/19 11:28:45;;;;;;;5.90;1.00;;;13.80;99.90;;;;;;5030428;28;20492;-76
2023/11/19 11:31:33;;;;;;;2.75;0.90;;;13.80;99.90;;;;;;5051636;28;20102;-78
2023/11/19 11:34:15;;;;;;;1.60;1.17;;;13.80;99.90;;;;;;5054662;28;20056;-78
2023/11/19 11:36:51;;;;;;;2.97;1.20;;;13.80;99.90;;;;;;5057615;28;20436;-79
2023/11/19 11:39:22;;;;;;;4.55;1.02;;;13.80;99.90;;;;;;5057953;28;20048;-79
2023/11/19 11:42:17;;;;;;;1.05;0.90;;;13.80;99.90;;;;;;5055537;28;20049;-81
2023/11/19 11:45:13;;;;;;;2.33;0.80;;;13.80;99.90;;;;;;5057229;28;20049;-78
2023/11/19 11:47:43;;;;;;;5.57;2.58;;;13.80;99.90;;;;;;5066746;22;20061;-80
2023/11/19 11:50:28;;;;;;;2.53;1.00;;;13.80;99.90;;;;;;5036742;28;20049;-81
2023/11/19 11:52:58;;;;;;;3.15;1.42;;;13.80;99.90;;;;;;5064148;28;20052;-81
2023/11/19 11:55:36;;;;;;;2.33;1.20;;;13.80;99.90;;;;;;5065902;28;20072;-81
2023/11/19 11:58:05;;;;;;;6.18;1.67;;;13.80;99.90;;;;;;5045862;28;20042;-80
2023/11/19 12:00:33;;;;;;;3.85;1.48;;;13.70;99.90;;;;;;5054879;28;20180;-81
2023/11/19 12:03:01;;;;;;;1.45;1.20;;;13.80;99.90;;;;;;5049802;28;20053;-80
2023/11/19 12:05:29;;;;;;;2.03;1.17;;;13.80;99.90;;;;;;5057390;28;20043;-80
2023/11/19 12:08:01;;;;;;;3.45;1.70;;;13.80;99.90;;;;;;5050761;28;20045;-82
2023/11/19 12:10:32;;;;;;;2.58;1.15;;;13.80;99.90;;;;;;5066341;28;20124;-82
2023/11/19 12:13:00;;;;;;;1.83;1.00;;;13.80;99.90;;;;;;5050142;28;20049;-81
2023/11/19 12:15:28;;;;;;;7.93;1.20;;;13.80;99.90;;;;;;5051153;28;20045;-81
2023/11/19 12:17:55;;;;;;;2.42;1.05;;;13.80;99.90;;;;;;5052284;28;20056;-81
2023/11/19 12:20:24;;;;;;;1.25;1.13;;;13.70;99.90;;;;;;5054376;28;20080;-81
2023/11/19 12:22:54;;;;;;;2.08;1.10;;;13.70;99.90;;;;;;5051551;28;20045;-81
2023/11/19 12:25:21;;;;;;;1.75;1.10;;;13.70;99.90;;;;;;5052385;28;20495;-82
2023/11/19 12:27:50;;;;;;;2.47;1.25;;;13.80;99.90;;;;;;5051865;28;20492;-79
2023/11/19 12:30:22;;;;;;;3.83;1.25;;;13.70;99.90;;;;;;5053054;28;20140;-82
2023/11/19 12:32:49;;;;;;;5.25;1.63;;;13.70;99.90;;;;;;5054105;28;20059;-80
2023/11/19 12:35:16;;;;;;;3.40;1.30;;;13.70;99.90;;;;;;5053086;28;20077;-81
2023/11/19 12:37:44;;;;;;;1.83;1.00;;;13.70;99.90;;;;;;5054286;28;20053;-79
2023/11/19 12:40:12;;;;;;;3.75;1.67;;;13.80;99.90;;;;;;5045818;28;20493;-81
2023/11/19 12:42:39;;;;;;;1.40;1.15;;;13.80;99.90;;;;;;5055764;28;20068;-82
2023/11/19 12:45:08;;;;;;;3.72;2.25;;;13.80;99.90;;;;;;5050541;28;20046;-81
2023/11/19 12:47:34;;;;;;;1.63;1.30;;;13.80;99.90;;;;;;5055763;28;20049;-81
2023/11/19 12:50:01;;;;;;;1.70;0.90;;;13.80;99.90;;;;;;5048833;28;20520;-81
2023/11/19 12:52:28;;;;;;;1.67;0.90;;;13.80;99.90;;;;;;5057013;28;20041;-82
2023/11/19 12:54:55;;;;;;;1.35;0.80;;;13.90;99.90;;;;;;5051270;28;20052;-81